Time;durP1;ratioP1;P1;durP2;ratioP2;P2;SDS_P1;SDS_P2;PMS_P1;PMS_P2;Temp;Humidity;BMP_temperature;BMP_pressure;BME280_temperature;BME280_humidity;BME280_pressure;Samples;Min_cycle;Max_cycle;Signal;HPM_P1;HPM_P2
2022/05/02 00:00:20;;;;;;;6.60;4.83;;;12.00;99.90;;;;;;5082779;28;20236;-54
2022/05/02 00:03:04;;;;;;;7.77;4.73;;;12.00;99.90;;;;;;5087638;28;20236;-57
2022/05/02 00:05:49;;;;;;;5.87;4.73;;;12.00;99.90;;;;;;5086206;28;20232;-55
2022/05/02 00:08:33;;;;;;;8.27;4.40;;;12.00;99.90;;;;;;5081332;28;20197;-50
2022/05/02 00:11:17;;;;;;;9.97;5.03;;;12.00;99.90;;;;;;5084901;28;20247;-52
2022/05/02 00:14:01;;;;;;;7.87;5.17;;;12.00;99.90;;;;;;5085163;28;20196;-56
2022/05/02 00:16:46;;;;;;;5.63;4.33;;;12.00;99.90;;;;;;5079561;28;20247;-48
2022/05/02 00:19:31;;;;;;;7.07;3.80;;;12.00;99.90;;;;;;5083729;28;20220;-47
2022/05/02 00:22:15;;;;;;;7.20;4.67;;;11.90;99.90;;;;;;5084687;28;20205;-54
2022/05/02 00:25:00;;;;;;;5.90;4.30;;;11.90;99.90;;;;;;5079766;28;20189;-49
2022/05/02 00:27:44;;;;;;;6.57;4.40;;;12.00;99.90;;;;;;5083641;28;20193;-48
2022/05/02 00:30:30;;;;;;;5.33;4.13;;;12.00;99.90;;;;;;5081098;28;20216;-49
2022/05/02 00:33:15;;;;;;;5.27;3.93;;;12.00;99.90;;;;;;5083108;28;20282;-55
2022/05/02 00:35:59;;;;;;;4.20;3.63;;;12.10;99.90;;;;;;5085660;28;20200;-52
2022/05/02 00:38:44;;;;;;;6.40;4.20;;;12.10;99.90;;;;;;5083190;28;20200;-45
2022/05/02 00:41:28;;;;;;;6.13;4.13;;;12.20;99.90;;;;;;5082652;28;20200;-52
2022/05/02 00:44:12;;;;;;;4.77;3.67;;;12.20;99.90;;;;;;5083360;28;20193;-54
2022/05/02 00:46:57;;;;;;;5.00;4.03;;;12.20;99.90;;;;;;5081166;28;20196;-49
2022/05/02 00:49:42;;;;;;;5.73;4.00;;;12.30;99.90;;;;;;5084801;28;20201;-53
2022/05/02 00:52:27;;;;;;;7.40;4.60;;;12.20;99.90;;;;;;5080109;28;20197;-47
2022/05/02 00:55:11;;;;;;;4.97;3.93;;;12.30;99.90;;;;;;5080500;28;20201;-51
2022/05/02 00:57:59;;;;;;;4.93;3.90;;;12.30;99.90;;;;;;5083202;28;20250;-51
2022/05/02 01:00:45;;;;;;;5.63;4.00;;;12.30;99.90;;;;;;5082080;28;20233;-44
2022/05/02 01:03:29;;;;;;;3.90;3.53;;;12.30;99.90;;;;;;5081097;28;20191;-48
2022/05/02 01:09:16;;;;;;;5.03;4.20;;;12.20;99.90;;;;;;5082420;28;20205;-50
2022/05/02 01:12:01;;;;;;;4.80;3.87;;;12.20;99.90;;;;;;5083597;28;20262;-55
2022/05/02 01:14:49;;;;;;;4.57;3.97;;;12.10;99.90;;;;;;5082124;28;20207;-45
2022/05/02 01:17:33;;;;;;;5.17;3.73;;;12.20;99.90;;;;;;5080023;28;20658;-53
2022/05/02 01:20:17;;;;;;;4.67;3.63;;;12.10;99.90;;;;;;5083035;28;20337;-53
2022/05/02 01:23:01;;;;;;;5.93;3.57;;;12.10;99.90;;;;;;5083780;28;20196;-58
2022/05/02 01:25:46;;;;;;;5.40;4.03;;;12.00;99.90;;;;;;5080071;28;20259;-52
2022/05/02 01:28:30;;;;;;;5.17;4.00;;;11.80;99.90;;;;;;5083646;28;20196;-48
2022/05/02 01:31:16;;;;;;;5.07;3.60;;;11.70;99.90;;;;;;5080241;28;20200;-55
2022/05/02 01:34:00;;;;;;;5.70;3.57;;;11.60;99.90;;;;;;5080801;28;20189;-53
2022/05/02 01:36:45;;;;;;;4.83;4.00;;;11.40;99.90;;;;;;5083537;28;20197;-51
2022/05/02 01:39:30;;;;;;;4.67;3.40;;;11.20;99.90;;;;;;5080710;28;20232;-47
2022/05/02 01:42:14;;;;;;;4.70;3.47;;;11.10;99.90;;;;;;5080340;28;20200;-53
2022/05/02 01:44:59;;;;;;;4.13;3.50;;;11.00;99.90;;;;;;5082642;28;20224;-56
2022/05/02 01:47:43;;;;;;;3.50;3.20;;;11.00;99.90;;;;;;5079855;28;20199;-53
2022/05/02 01:50:28;;;;;;;3.80;3.40;;;10.90;99.90;;;;;;5083015;28;20197;-52
2022/05/02 01:53:12;;;;;;;5.97;3.47;;;10.80;99.90;;;;;;5082776;28;20406;-51
2022/05/02 01:55:56;;;;;;;5.83;3.80;;;10.80;99.90;;;;;;5077812;28;20240;-49
2022/05/02 01:58:40;;;;;;;5.30;2.93;;;10.70;99.90;;;;;;5082003;28;20646;-50
2022/05/02 02:01:25;;;;;;;3.50;3.20;;;10.70;99.90;;;;;;5080521;28;20220;-55
2022/05/02 02:07:14;;;;;;;3.73;3.30;;;10.60;99.90;;;;;;5084591;28;20229;-51
2022/05/02 02:09:58;;;;;;;5.27;3.10;;;10.50;99.90;;;;;;5079533;28;20228;-53
2022/05/02 02:12:43;;;;;;;5.67;3.33;;;10.50;99.90;;;;;;5079969;28;20242;-47
2022/05/02 02:15:28;;;;;;;3.47;2.97;;;10.60;99.90;;;;;;5082498;28;20193;-49
2022/05/02 02:18:12;;;;;;;4.07;3.17;;;10.50;99.90;;;;;;5080693;28;20197;-51
2022/05/02 02:20:57;;;;;;;5.33;3.50;;;10.40;99.90;;;;;;5079923;28;20288;-48
2022/05/02 02:23:42;;;;;;;3.87;3.00;;;10.40;99.90;;;;;;5082121;28;20204;-53
2022/05/02 02:26:26;;;;;;;3.90;3.33;;;10.20;99.90;;;;;;5073469;28;20224;-54
2022/05/02 02:29:11;;;;;;;2.93;2.60;;;10.20;99.90;;;;;;5081960;28;20258;-52
2022/05/02 02:31:55;;;;;;;4.03;2.60;;;10.20;99.90;;;;;;5082371;28;20189;-56
2022/05/02 02:34:39;;;;;;;5.03;3.00;;;10.20;99.90;;;;;;5078108;28;20189;-49
2022/05/02 02:37:23;;;;;;;2.63;2.03;;;10.10;99.90;;;;;;5081301;28;20238;-46
2022/05/02 02:40:09;;;;;;;3.13;2.57;;;10.10;99.90;;;;;;5079100;28;20637;-54
2022/05/02 02:42:53;;;;;;;3.93;3.37;;;10.00;99.90;;;;;;5081026;28;20242;-47
2022/05/02 02:45:38;;;;;;;4.33;3.27;;;10.10;99.90;;;;;;5081218;28;20220;-50
2022/05/02 02:48:23;;;;;;;4.70;3.53;;;10.00;99.90;;;;;;5078944;28;20204;-55
2022/05/02 02:51:07;;;;;;;5.10;3.27;;;10.00;99.90;;;;;;5081178;28;20315;-54
2022/05/02 02:53:52;;;;;;;9.50;3.80;;;10.00;99.90;;;;;;5082487;28;20196;-51
2022/05/02 02:56:36;;;;;;;11.10;5.67;;;9.90;99.90;;;;;;5080092;28;20192;-49
2022/05/02 02:59:20;;;;;;;5.67;4.07;;;9.80;99.90;;;;;;5080528;28;20273;-54
2022/05/02 03:02:06;;;;;;;6.30;3.90;;;9.90;99.90;;;;;;5080631;28;20196;-55
2022/05/02 03:07:54;;;;;;;6.17;4.07;;;10.10;99.90;;;;;;5080852;28;20209;-52
2022/05/02 03:10:39;;;;;;;4.20;3.57;;;9.90;99.90;;;;;;5077871;28;20274;-56
2022/05/02 03:13:23;;;;;;;6.63;4.13;;;9.90;99.90;;;;;;5077806;28;20189;-51
2022/05/02 03:16:10;;;;;;;4.90;3.27;;;9.90;99.90;;;;;;5080471;28;20204;-53
2022/05/02 03:18:54;;;;;;;7.30;4.13;;;9.70;99.90;;;;;;5079926;28;20245;-52
2022/05/02 03:21:38;;;;;;;7.17;3.70;;;9.70;99.90;;;;;;5078310;28;20278;-55
2022/05/02 03:24:22;;;;;;;6.17;3.73;;;9.70;99.90;;;;;;5080977;28;20208;-56
2022/05/02 03:27:08;;;;;;;6.47;4.00;;;9.70;99.90;;;;;;5074202;28;20274;-49
2022/05/02 03:29:52;;;;;;;6.70;3.80;;;9.80;99.90;;;;;;5080052;28;20242;-45
2022/05/02 03:32:36;;;;;;;6.13;3.37;;;9.80;99.90;;;;;;5081032;28;20295;-50
2022/05/02 03:35:20;;;;;;;6.10;3.23;;;9.80;99.90;;;;;;5079280;28;20227;-54
2022/05/02 03:38:05;;;;;;;7.10;4.27;;;9.80;99.90;;;;;;5079052;28;20254;-51
2022/05/02 03:40:49;;;;;;;4.83;3.20;;;9.70;99.90;;;;;;5078335;28;20216;-45
2022/05/02 03:43:34;;;;;;;4.07;3.60;;;9.80;99.90;;;;;;5078750;28;20189;-50
2022/05/02 03:46:19;;;;;;;6.93;3.77;;;9.90;99.90;;;;;;5082089;28;20224;-50
2022/05/02 03:49:03;;;;;;;6.67;3.33;;;9.70;99.90;;;;;;5080054;28;20235;-45
2022/05/02 03:51:48;;;;;;;4.63;3.20;;;9.70;99.90;;;;;;5078522;28;20197;-47
2022/05/02 03:54:32;;;;;;;6.63;3.37;;;9.80;99.90;;;;;;5081399;28;20196;-49
2022/05/02 03:57:17;;;;;;;5.33;3.27;;;9.80;99.90;;;;;;5078167;28;20294;-51
2022/05/02 04:00:02;;;;;;;6.37;3.40;;;9.70;99.90;;;;;;5081099;28;20313;-55
2022/05/02 04:02:47;;;;;;;6.13;4.20;;;9.80;99.90;;;;;;5081849;28;20275;-55
2022/05/02 04:05:31;;;;;;;3.93;3.43;;;9.80;99.90;;;;;;5076914;28;20220;-48
2022/05/02 04:08:15;;;;;;;11.43;4.00;;;9.70;99.90;;;;;;5080577;28;20255;-51
2022/05/02 04:11:00;;;;;;;4.87;3.60;;;9.60;99.90;;;;;;5080319;28;20251;-48
2022/05/02 04:13:45;;;;;;;6.53;3.33;;;9.70;99.90;;;;;;5080087;28;20227;-51
2022/05/02 04:16:30;;;;;;;3.93;3.53;;;9.70;99.90;;;;;;5082798;28;20192;-55
2022/05/02 04:19:15;;;;;;;3.37;2.60;;;9.70;99.90;;;;;;5079280;28;20234;-51
2022/05/02 04:22:00;;;;;;;3.67;3.00;;;9.50;99.90;;;;;;5080833;28;20243;-49
2022/05/02 04:24:44;;;;;;;5.73;3.50;;;9.40;99.90;;;;;;5082337;28;20221;-51
2022/05/02 04:27:28;;;;;;;5.17;3.43;;;9.40;99.90;;;;;;5081747;28;20297;-51
2022/05/02 04:30:13;;;;;;;3.17;2.63;;;9.40;99.90;;;;;;5084705;28;20264;-50
2022/05/02 04:32:57;;;;;;;7.47;4.13;;;9.30;99.90;;;;;;5070636;28;20248;-54
2022/05/02 04:35:42;;;;;;;3.00;2.67;;;9.40;99.90;;;;;;5082165;28;20208;-51
2022/05/02 04:38:28;;;;;;;5.33;3.30;;;9.30;99.90;;;;;;5084248;28;20192;-51
2022/05/02 04:41:14;;;;;;;3.70;2.60;;;9.30;99.90;;;;;;5083455;28;20220;-53
2022/05/02 04:43:58;;;;;;;3.03;2.60;;;9.20;99.90;;;;;;5083095;28;20372;-55
2022/05/02 04:46:43;;;;;;;3.40;3.10;;;9.00;99.90;;;;;;5084279;28;20246;-52
2022/05/02 04:49:27;;;;;;;5.83;3.20;;;9.00;99.90;;;;;;5083408;28;20207;-56
2022/05/02 04:52:11;;;;;;;3.70;3.40;;;9.10;99.90;;;;;;5083799;28;20188;-54
2022/05/02 04:54:56;;;;;;;2.57;2.37;;;9.00;99.90;;;;;;5085170;28;20204;-56
2022/05/02 04:57:40;;;;;;;5.57;3.30;;;9.00;99.90;;;;;;5079793;28;20185;-55
2022/05/02 05:00:25;;;;;;;4.27;2.87;;;9.00;99.90;;;;;;5082967;28;20232;-52
2022/05/02 05:03:09;;;;;;;3.20;2.90;;;9.00;99.90;;;;;;5083649;28;20193;-56
2022/05/02 05:05:54;;;;;;;2.90;2.70;;;9.10;99.90;;;;;;5082154;28;20279;-51
2022/05/02 05:08:42;;;;;;;3.20;2.60;;;9.20;99.90;;;;;;5084631;28;20201;-53
2022/05/02 05:11:26;;;;;;;4.57;2.70;;;9.00;99.90;;;;;;5083679;28;20335;-55
2022/05/02 05:18:13;;;;;;;5.13;3.00;;;8.80;99.90;;;;;;5087071;28;20251;-46
2022/05/02 05:21:02;;;;;;;2.97;2.67;;;8.90;99.90;;;;;;5086166;28;20212;-50
2022/05/02 05:24:04;;;;;;;3.20;2.50;;;9.00;99.90;;;;;;5082807;28;20285;-47
2022/05/02 05:27:04;;;;;;;3.13;2.70;;;9.00;99.90;;;;;;5084102;28;20196;-53
2022/05/02 05:30:04;;;;;;;3.37;2.87;;;9.00;99.90;;;;;;5083720;28;20196;-55
2022/05/02 05:33:17;;;;;;;3.43;3.00;;;8.80;99.90;;;;;;5080254;28;20197;-56
2022/05/02 05:36:40;;;;;;;3.63;2.63;;;9.00;99.90;;;;;;5079176;28;20196;-51
2022/05/02 05:39:39;;;;;;;3.30;3.07;;;9.10;99.90;;;;;;5081875;28;20243;-56
2022/05/02 05:42:52;;;;;;;5.80;3.00;;;9.10;99.90;;;;;;5082371;28;20239;-54
2022/05/02 05:45:37;;;;;;;3.53;2.90;;;8.90;99.90;;;;;;5081381;28;20193;-53
2022/05/02 05:48:47;;;;;;;5.30;3.30;;;8.90;99.90;;;;;;5080000;28;20279;-50
2022/05/02 05:51:37;;;;;;;3.57;3.27;;;9.00;99.90;;;;;;5080527;28;20217;-53
2022/05/02 05:54:27;;;;;;;4.13;3.37;;;9.10;99.90;;;;;;5078345;28;20290;-56
2022/05/02 05:57:27;;;;;;;5.87;2.70;;;9.20;99.90;;;;;;5080893;28;20201;-47
2022/05/02 06:00:13;;;;;;;4.67;3.67;;;9.40;99.90;;;;;;5083336;28;20262;-49
2022/05/02 06:03:12;;;;;;;5.53;3.33;;;9.50;99.90;;;;;;5081380;28;20204;-48
2022/05/02 06:05:57;;;;;;;3.93;3.07;;;9.80;99.90;;;;;;5082144;28;20247;-52
2022/05/02 06:08:44;;;;;;;5.67;3.77;;;9.80;99.90;;;;;;5082035;28;20197;-46
2022/05/02 06:11:29;;;;;;;6.43;3.40;;;9.80;99.90;;;;;;5080376;28;20200;-49
2022/05/02 06:14:15;;;;;;;5.03;3.67;;;9.80;99.90;;;;;;5082134;28;20247;-51
2022/05/02 06:20:05;;;;;;;4.17;3.27;;;9.80;99.90;;;;;;5067423;28;20314;-46
2022/05/02 06:22:51;;;;;;;5.13;3.77;;;9.80;99.90;;;;;;5076594;28;20215;-45
2022/05/02 06:25:37;;;;;;;7.07;4.47;;;10.00;99.90;;;;;;5076732;28;20205;-53
2022/05/02 06:28:26;;;;;;;6.73;4.37;;;10.10;99.90;;;;;;5072309;28;20208;-52
2022/05/02 06:31:16;;;;;;;6.00;4.37;;;10.20;99.90;;;;;;5070923;28;20197;-49
2022/05/02 06:34:05;;;;;;;4.37;3.40;;;10.20;99.90;;;;;;5079431;28;20246;-55
2022/05/02 06:37:07;;;;;;;5.23;4.07;;;10.40;99.90;;;;;;5068896;28;20233;-51
2022/05/02 06:39:57;;;;;;;4.57;4.00;;;10.50;99.90;;;;;;5078151;28;20229;-47
2022/05/02 06:43:03;;;;;;;7.93;4.67;;;10.70;99.90;;;;;;5076568;28;20220;-52
2022/05/02 06:46:18;;;;;;;5.00;4.30;;;10.80;99.90;;;;;;5072926;28;20323;-49
2022/05/02 06:49:11;;;;;;;7.30;4.17;;;10.70;99.90;;;;;;5071556;28;20197;-55
2022/05/02 06:51:57;;;;;;;4.23;3.73;;;10.90;99.90;;;;;;5077643;28;20196;-51
2022/05/02 06:54:51;;;;;;;6.10;4.03;;;11.00;99.90;;;;;;5092270;28;20221;-53
2022/05/02 06:57:56;;;;;;;5.17;4.23;;;11.30;99.90;;;;;;5070477;28;20205;-53
2022/05/02 07:01:01;;;;;;;7.40;3.90;;;11.40;99.90;;;;;;5093405;28;20305;-47
2022/05/02 07:04:27;;;;;;;4.13;3.73;;;11.60;99.90;;;;;;5073979;28;20262;-55
2022/05/02 07:07:42;;;;;;;3.83;3.20;;;12.10;99.90;;;;;;5013006;28;20279;-50
2022/05/02 07:10:34;;;;;;;5.57;4.20;;;12.20;99.90;;;;;;5052959;28;20279;-52
2022/05/02 07:13:36;;;;;;;4.33;3.93;;;12.50;99.90;;;;;;5058187;28;20329;-55
2022/05/02 07:16:25;;;;;;;7.53;4.50;;;12.60;99.90;;;;;;5045640;28;20198;-49
2022/05/02 07:19:48;;;;;;;6.07;4.53;;;12.70;99.90;;;;;;5059500;28;20248;-50
2022/05/02 07:22:36;;;;;;;5.37;4.27;;;12.90;99.90;;;;;;5053417;28;20213;-48
2022/05/02 07:25:21;;;;;;;5.67;4.10;;;13.20;99.90;;;;;;5055382;28;20194;-56
2022/05/02 07:28:18;;;;;;;4.97;4.27;;;13.50;99.90;;;;;;5053543;28;20183;-50
2022/05/02 07:31:06;;;;;;;5.07;4.20;;;13.70;99.90;;;;;;5055572;28;20205;-50
2022/05/02 07:33:53;;;;;;;6.40;4.60;;;13.60;99.90;;;;;;5043266;28;20215;-50
2022/05/02 07:36:39;;;;;;;5.37;4.40;;;14.00;99.90;;;;;;5051698;28;20201;-47
2022/05/02 07:39:25;;;;;;;4.70;4.10;;;14.30;99.90;;;;;;5059554;28;20242;-45
2022/05/02 07:42:12;;;;;;;4.90;3.90;;;14.60;99.90;;;;;;5069141;28;20192;-53
2022/05/02 07:45:00;;;;;;;4.60;4.13;;;14.90;99.90;;;;;;5053390;28;20265;-51
2022/05/02 07:47:50;;;;;;;4.87;3.83;;;15.50;99.90;;;;;;5056690;28;20200;-50
2022/05/02 07:50:35;;;;;;;4.40;3.67;;;15.60;99.90;;;;;;5051336;28;20257;-48
2022/05/02 07:53:19;;;;;;;3.77;3.47;;;15.80;99.90;;;;;;5051284;28;20194;-49
2022/05/02 07:56:05;;;;;;;5.07;3.77;;;15.90;99.90;;;;;;5046086;28;20272;-54
2022/05/02 07:58:53;;;;;;;3.77;3.47;;;15.90;99.90;;;;;;5052749;28;20197;-49
2022/05/02 08:01:38;;;;;;;5.00;3.60;;;15.90;99.90;;;;;;5057659;28;20229;-50
2022/05/02 08:04:23;;;;;;;3.27;3.07;;;16.00;99.90;;;;;;5059228;28;20201;-53
2022/05/02 08:07:19;;;;;;;3.93;3.33;;;16.00;99.90;;;;;;5069695;28;20282;-52
2022/05/02 08:10:28;;;;;;;4.70;3.17;;;15.80;99.90;;;;;;5078159;28;20184;-54
2022/05/02 08:13:34;;;;;;;3.53;3.23;;;16.00;99.90;;;;;;5082630;28;20197;-58
2022/05/02 08:16:23;;;;;;;3.63;3.27;;;16.40;99.90;;;;;;5075286;28;20243;-57
2022/05/02 08:19:32;;;;;;;4.37;3.20;;;16.90;99.90;;;;;;5079083;28;20201;-52
2022/05/02 08:29:26;;;;;;;3.60;3.37;;;17.50;99.90;;;;;;5073597;28;20205;-55
2022/05/02 08:32:38;;;;;;;2.92;2.72;;;18.00;99.90;;;;;;5050295;28;20197;-46
2022/05/02 08:35:48;;;;;;;2.40;2.30;;;18.30;99.90;;;;;;5074058;28;20204;-57
2022/05/02 08:39:01;;;;;;;5.15;2.83;;;18.40;99.90;;;;;;5077880;28;20193;-49
2022/05/02 08:42:11;;;;;;;3.25;2.88;;;18.30;99.90;;;;;;5079447;28;20233;-46
2022/05/02 08:45:44;;;;;;;3.08;2.88;;;18.40;99.90;;;;;;5092399;28;20221;-51
2022/05/02 08:49:32;;;;;;;2.80;2.60;;;18.90;99.90;;;;;;5078711;28;20201;-46
2022/05/02 08:52:07;;;;;;;2.92;2.72;;;19.10;99.90;;;;;;5077879;28;20194;-53
2022/05/02 08:55:00;;;;;;;3.38;3.03;;;19.20;99.90;;;;;;5076981;28;20192;-49
2022/05/02 08:57:50;;;;;;;3.10;2.88;;;19.40;99.90;;;;;;5082310;28;20251;-58
2022/05/02 09:00:46;;;;;;;2.33;2.22;;;19.10;99.90;;;;;;5077338;28;20286;-57
2022/05/02 09:03:52;;;;;;;3.15;2.75;;;19.10;99.90;;;;;;5076931;28;20184;-52
2022/05/02 09:06:38;;;;;;;3.13;2.83;;;19.40;99.90;;;;;;5076575;28;20224;-52
2022/05/02 09:09:50;;;;;;;4.60;3.33;;;19.70;99.80;;;;;;5076841;28;20244;-56
2022/05/02 09:12:46;;;;;;;5.65;3.30;;;20.00;99.40;;;;;;5066620;28;20205;-48
2022/05/02 09:15:48;;;;;;;3.17;2.90;;;20.10;98.60;;;;;;5075671;28;20197;-51
2022/05/02 09:18:55;;;;;;;6.82;3.90;;;20.00;99.10;;;;;;5078288;28;20196;-48
2022/05/02 09:21:51;;;;;;;2.92;2.63;;;20.40;99.00;;;;;;5073134;28;20227;-54
2022/05/02 09:24:44;;;;;;;4.82;2.60;;;20.50;98.40;;;;;;5072859;28;20251;-48
2022/05/02 09:27:55;;;;;;;2.53;2.42;;;20.60;98.50;;;;;;5075527;28;20240;-50
2022/05/02 09:30:54;;;;;;;2.55;2.28;;;20.90;97.60;;;;;;5073722;28;20193;-48
2022/05/02 09:34:17;;;;;;;2.80;2.60;;;20.90;97.60;;;;;;5070223;28;20328;-50
2022/05/02 09:37:04;;;;;;;1.70;1.70;;;21.80;95.70;;;;;;5077149;28;20272;-50
2022/05/02 09:40:00;;;;;;;2.10;2.00;;;22.00;95.60;;;;;;5098106;28;20221;-50
2022/05/02 09:43:15;;;;;;;1.20;1.20;;;21.30;95.70;;;;;;5079432;28;20254;-56
2022/05/02 09:50:07;;;;;;;2.22;2.13;;;21.80;94.10;;;;;;5039376;28;20212;-53
2022/05/02 09:53:12;;;;;;;3.10;1.60;;;22.00;95.10;;;;;;5075745;28;20255;-55
2022/05/02 09:59:19;;;;;;;1.40;1.40;;;22.10;93.50;;;;;;5079938;28;20324;-47
2022/05/02 10:02:23;;;;;;;1.95;1.85;;;23.10;92.00;;;;;;5081456;28;20259;-49
2022/05/02 10:05:08;;;;;;;1.60;1.52;;;23.90;90.50;;;;;;5075385;28;20192;-55
2022/05/02 10:08:05;;;;;;;1.77;1.67;;;24.50;90.20;;;;;;5079848;28;20181;-46
2022/05/02 10:11:14;;;;;;;2.00;1.90;;;25.30;88.10;;;;;;5081905;28;20220;-50
2022/05/02 10:14:29;;;;;;;2.17;2.08;;;25.60;85.60;;;;;;5078597;28;20217;-56
2022/05/02 10:17:17;;;;;;;1.65;1.65;;;26.00;83.00;;;;;;5075133;28;20376;-54
2022/05/02 10:20:17;;;;;;;1.52;1.42;;;25.20;84.50;;;;;;5078917;28;20247;-52
2022/05/02 10:23:01;;;;;;;1.80;1.80;;;25.50;82.90;;;;;;5080305;28;20274;-47
2022/05/02 10:25:51;;;;;;;1.73;1.65;;;25.40;82.70;;;;;;5072140;28;20192;-55
2022/05/02 10:29:06;;;;;;;1.70;1.67;;;26.40;80.00;;;;;;5081736;28;20189;-53
2022/05/02 10:32:03;;;;;;;1.50;1.40;;;26.70;74.90;;;;;;5081752;28;20271;-51
2022/05/02 10:34:51;;;;;;;1.77;1.67;;;26.00;76.30;;;;;;5073684;28;20212;-53
2022/05/02 10:37:39;;;;;;;1.98;1.88;;;26.40;77.90;;;;;;5077760;28;20335;-52
2022/05/02 10:40:39;;;;;;;2.20;2.10;;;26.90;75.10;;;;;;5078422;28;20188;-50
2022/05/02 10:43:26;;;;;;;1.80;1.52;;;27.90;73.80;;;;;;5078681;28;20231;-47
2022/05/02 10:46:12;;;;;;;1.58;1.50;;;27.90;73.50;;;;;;5075011;28;20192;-55
2022/05/02 10:49:24;;;;;;;0.98;0.98;;;27.20;71.50;;;;;;5080496;28;20190;-52
2022/05/02 10:52:43;;;;;;;1.20;1.20;;;27.60;70.30;;;;;;5065963;28;20204;-46
2022/05/02 10:55:32;;;;;;;1.70;1.60;;;28.40;69.10;;;;;;5068839;28;20200;-48
2022/05/02 10:58:17;;;;;;;1.33;1.33;;;27.10;70.00;;;;;;5074173;28;20294;-53
2022/05/02 11:01:08;;;;;;;1.52;1.50;;;26.30;68.80;;;;;;5077939;28;20258;-51
2022/05/02 11:04:17;;;;;;;1.60;1.55;;;25.30;71.00;;;;;;5073500;28;20288;-45
2022/05/02 11:07:08;;;;;;;1.83;1.73;;;25.40;73.40;;;;;;5073159;28;20280;-50
2022/05/02 11:10:05;;;;;;;1.95;1.88;;;26.90;70.90;;;;;;5076459;28;20243;-47
2022/05/02 11:13:11;;;;;;;1.52;1.42;;;27.10;70.00;;;;;;5069810;28;20233;-48
2022/05/02 11:16:09;;;;;;;1.83;1.73;;;26.70;71.30;;;;;;5075095;28;20196;-47
2022/05/02 11:22:41;;;;;;;2.08;1.90;;;28.00;68.60;;;;;;5076682;28;20289;-55
2022/05/02 11:25:34;;;;;;;2.00;2.00;;;28.30;67.80;;;;;;5087141;28;20247;-47
2022/05/02 11:28:37;;;;;;;1.83;1.73;;;28.30;67.10;;;;;;5083685;28;20197;-51
2022/05/02 11:31:47;;;;;;;1.75;1.75;;;28.30;67.50;;;;;;5075636;28;20286;-51
2022/05/02 11:34:52;;;;;;;1.85;1.75;;;28.70;66.30;;;;;;5075243;28;20239;-56
2022/05/02 11:37:54;;;;;;;1.90;1.80;;;28.20;67.00;;;;;;5083968;28;20267;-55
2022/05/02 11:40:51;;;;;;;1.60;1.60;;;28.30;65.40;;;;;;5077683;28;20200;-51
2022/05/02 11:43:39;;;;;;;1.98;1.77;;;28.70;64.10;;;;;;5084277;28;20268;-51
2022/05/02 11:46:26;;;;;;;1.83;1.73;;;26.80;67.30;;;;;;5081259;28;20255;-51
2022/05/02 11:49:33;;;;;;;1.65;1.60;;;27.30;68.00;;;;;;5081468;28;20230;-55
2022/05/02 11:52:38;;;;;;;1.90;1.80;;;29.20;65.40;;;;;;5081937;28;20284;-49
2022/05/02 11:55:30;;;;;;;3.42;1.75;;;28.40;64.90;;;;;;5079012;28;20275;-50
2022/05/02 11:58:26;;;;;;;1.80;1.70;;;26.80;66.40;;;;;;5083396;28;20205;-50
2022/05/02 12:01:12;;;;;;;1.90;1.80;;;25.70;70.50;;;;;;5092538;28;20182;-45
2022/05/02 12:04:00;;;;;;;3.40;2.17;;;26.00;69.40;;;;;;5082800;28;20235;-52
2022/05/02 12:07:02;;;;;;;2.47;2.22;;;27.40;67.70;;;;;;5081917;28;20608;-56
2022/05/02 12:09:47;;;;;;;1.95;1.85;;;29.00;64.60;;;;;;5078788;28;20206;-58
2022/05/02 12:12:32;;;;;;;1.67;1.67;;;29.80;63.20;;;;;;5076411;28;20236;-50
2022/05/02 12:15:18;;;;;;;2.17;1.60;;;30.80;61.20;;;;;;5082104;28;20196;-54
2022/05/02 12:18:05;;;;;;;1.67;1.58;;;30.80;61.60;;;;;;5071776;28;20279;-52
2022/05/02 12:20:54;;;;;;;1.48;1.38;;;31.20;58.10;;;;;;5082093;28;20192;-50
2022/05/02 12:23:41;;;;;;;1.85;1.48;;;31.70;57.90;;;;;;5098374;28;20193;-55
2022/05/02 12:26:27;;;;;;;1.70;1.70;;;31.60;58.00;;;;;;5072252;28;20250;-47
2022/05/02 12:29:14;;;;;;;1.80;1.70;;;29.50;57.80;;;;;;5086340;28;20200;-52
2022/05/02 12:32:03;;;;;;;1.98;1.88;;;28.70;59.90;;;;;;5078790;28;20204;-52
2022/05/02 12:34:52;;;;;;;1.90;1.80;;;29.60;59.80;;;;;;5079441;28;20189;-50
2022/05/02 12:37:39;;;;;;;1.80;1.80;;;30.90;58.20;;;;;;5083215;28;20209;-52
2022/05/02 12:40:25;;;;;;;2.00;1.90;;;30.60;58.00;;;;;;5081599;28;20274;-54
2022/05/02 12:43:15;;;;;;;2.47;2.17;;;29.90;59.30;;;;;;5080729;28;20181;-55
2022/05/02 12:46:10;;;;;;;2.10;2.10;;;29.50;58.90;;;;;;5081008;28;20209;-50
2022/05/02 12:49:03;;;;;;;1.67;1.58;;;30.50;58.90;;;;;;5080191;28;20185;-55
2022/05/02 12:51:56;;;;;;;1.80;1.70;;;31.00;57.30;;;;;;5078779;28;20229;-48
2022/05/02 12:54:48;;;;;;;1.58;1.58;;;31.70;57.30;;;;;;5085589;28;20224;-50
2022/05/02 13:00:43;;;;;;;1.60;1.60;;;34.20;54.70;;;;;;5074801;28;20227;-47
2022/05/02 13:03:30;;;;;;;1.98;1.88;;;34.70;53.00;;;;;;5081930;28;20268;-49
2022/05/02 13:06:19;;;;;;;1.33;1.20;;;34.00;53.30;;;;;;5066101;28;20365;-48
2022/05/02 13:09:16;;;;;;;1.75;1.73;;;31.70;53.70;;;;;;5092537;28;20267;-47
2022/05/02 13:12:08;;;;;;;1.02;1.00;;;30.80;56.10;;;;;;5082544;28;20204;-50
2022/05/02 13:15:00;;;;;;;0.70;0.70;;;30.20;56.90;;;;;;5074824;28;20189;-48
2022/05/02 13:17:49;;;;;;;5.20;0.90;;;28.60;58.20;;;;;;5078424;28;20185;-46
2022/05/02 13:20:34;;;;;;;1.77;1.15;;;26.90;59.20;;;;;;5084969;28;20189;-50
2022/05/02 13:23:18;;;;;;;0.77;0.77;;;25.40;62.10;;;;;;5081326;28;20196;-52
2022/05/02 13:26:26;;;;;;;0.70;0.70;;;25.60;62.20;;;;;;5077983;28;20289;-54
2022/05/02 13:29:28;;;;;;;0.80;0.80;;;27.80;60.20;;;;;;5081445;28;20247;-46
2022/05/02 13:32:41;;;;;;;0.80;0.80;;;27.50;60.70;;;;;;5076495;28;20213;-56
2022/05/02 13:35:30;;;;;;;0.60;0.60;;;28.60;59.50;;;;;;5074103;28;20193;-46
2022/05/02 13:38:25;;;;;;;0.50;0.50;;;30.40;57.40;;;;;;5086343;28;20200;-53
2022/05/02 13:41:15;;;;;;;0.95;0.80;;;30.20;57.60;;;;;;5082652;28;20205;-56
2022/05/02 13:44:18;;;;;;;2.30;1.30;;;28.60;59.10;;;;;;5069665;28;20305;-50
2022/05/02 13:47:10;;;;;;;1.05;1.05;;;26.90;60.00;;;;;;5076733;28;20497;-48
2022/05/02 13:50:10;;;;;;;2.28;1.33;;;24.80;64.40;;;;;;5073618;28;20263;-57
2022/05/02 13:53:36;;;;;;;1.08;1.08;;;23.90;67.10;;;;;;5079404;28;20196;-56
2022/05/02 13:56:44;;;;;;;1.20;1.20;;;22.70;71.40;;;;;;4990969;28;20199;-50
2022/05/02 13:59:55;;;;;;;0.65;0.65;;;21.60;74.30;;;;;;4992629;28;20267;-48
2022/05/02 14:03:19;;;;;;;0.90;0.90;;;21.10;82.50;;;;;;5000608;28;20198;-50
2022/05/02 14:06:10;;;;;;;0.90;0.90;;;20.90;80.80;;;;;;4997158;28;20713;-51
2022/05/02 14:08:55;;;;;;;1.10;1.10;;;20.30;79.50;;;;;;4996680;28;20205;-50
2022/05/02 14:11:40;;;;;;;1.10;1.00;;;20.20;83.90;;;;;;5001062;28;20286;-46
2022/05/02 14:14:24;;;;;;;5.20;1.10;;;19.70;88.00;;;;;;4993329;28;20374;-48
2022/05/02 14:17:31;;;;;;;2.20;1.10;;;19.50;90.10;;;;;;4996732;28;20283;-48
2022/05/02 14:20:20;;;;;;;2.50;1.00;;;19.40;92.40;;;;;;5002170;28;20234;-55
2022/05/02 14:23:07;;;;;;;1.20;1.20;;;19.30;95.80;;;;;;4989811;28;20291;-49
2022/05/02 14:25:52;;;;;;;1.90;1.50;;;19.60;97.40;;;;;;4988743;28;20200;-47
2022/05/02 14:28:43;;;;;;;1.23;1.23;;;19.70;97.60;;;;;;4990482;28;20212;-51
2022/05/02 14:31:39;;;;;;;1.17;1.17;;;19.70;96.70;;;;;;4994012;28;20278;-47
2022/05/02 14:34:37;;;;;;;1.40;1.40;;;20.00;96.20;;;;;;5063921;28;20189;-45
2022/05/02 14:37:23;;;;;;;1.40;1.30;;;20.10;95.60;;;;;;5069895;28;20245;-51
2022/05/02 14:40:08;;;;;;;1.30;1.20;;;20.00;95.30;;;;;;5057734;28;20200;-46
2022/05/02 14:42:53;;;;;;;2.77;1.47;;;20.00;95.80;;;;;;5055897;28;20341;-54
2022/05/02 14:45:38;;;;;;;1.50;1.40;;;20.20;95.00;;;;;;5054863;28;20194;-56
2022/05/02 14:48:23;;;;;;;1.20;1.20;;;20.10;95.40;;;;;;5059592;28;20251;-48
2022/05/02 14:51:09;;;;;;;1.30;1.27;;;19.50;96.30;;;;;;5063419;28;20220;-46
2022/05/02 14:53:57;;;;;;;1.70;1.43;;;19.10;96.90;;;;;;5061538;28;20303;-46
2022/05/02 14:56:42;;;;;;;1.10;1.10;;;19.20;96.40;;;;;;5054540;28;20277;-53
2022/05/02 14:59:29;;;;;;;1.30;1.30;;;19.20;96.10;;;;;;5058146;28;20281;-50
2022/05/02 15:02:16;;;;;;;1.57;1.47;;;18.70;96.20;;;;;;5058267;28;20210;-51
2022/05/02 15:05:11;;;;;;;1.03;1.03;;;18.90;95.90;;;;;;5053598;28;20287;-54
2022/05/02 15:08:24;;;;;;;0.93;0.93;;;18.50;96.30;;;;;;5081903;28;20232;-50
2022/05/02 15:11:23;;;;;;;0.90;0.90;;;18.10;97.10;;;;;;5079004;28;20220;-45
2022/05/02 15:14:24;;;;;;;1.93;0.80;;;18.30;96.80;;;;;;5077237;28;20188;-49
2022/05/02 15:17:27;;;;;;;1.10;1.10;;;18.30;96.90;;;;;;5078219;28;20196;-51
2022/05/02 15:20:28;;;;;;;0.97;0.97;;;18.30;96.70;;;;;;5081039;28;20192;-50
2022/05/02 15:23:14;;;;;;;1.70;1.03;;;18.30;96.70;;;;;;5071943;28;20205;-50
2022/05/02 15:25:58;;;;;;;1.10;1.00;;;18.20;96.50;;;;;;5073628;28;20239;-48
2022/05/02 15:39:00;;;;;;;1.30;1.27;;;17.60;96.00;;;;;;5082757;28;20201;-57
2022/05/02 15:41:45;;;;;;;0.97;0.97;;;17.80;96.10;;;;;;5077157;28;20196;-56